createdAt,value
2018-07-14T00:00:39.100Z,71.50
2018-07-14T00:03:12.524Z,71.80
2018-07-14T00:05:46.008Z,72.10
2018-07-14T00:08:19.424Z,72.10
2018-07-14T00:10:52.950Z,72.40
2018-07-14T00:13:26.453Z,72.90
2018-07-14T00:15:59.968Z,72.90
2018-07-14T00:18:33.405Z,73.30
2018-07-14T00:21:06.947Z,73.90
2018-07-14T00:23:40.381Z,73.50
2018-07-14T00:26:18.088Z,73.20
2018-07-14T00:28:51.569Z,73.30
2018-07-14T00:31:25.075Z,73.80
2018-07-14T00:33:58.559Z,74.30
2018-07-14T00:36:32.051Z,73.80
2018-07-14T00:39:06.214Z,73.60
2018-07-14T00:41:39.711Z,73.80
2018-07-14T00:44:13.208Z,73.90
2018-07-14T00:46:46.680Z,74.00
2018-07-14T00:49:20.175Z,74.30
2018-07-14T00:51:53.615Z,74.30
2018-07-14T00:54:27.112Z,74.30
2018-07-14T00:57:00.589Z,74.40
2018-07-14T00:59:34.055Z,74.80
2018-07-14T01:02:07.893Z,74.90
2018-07-14T01:04:41.384Z,74.90
2018-07-14T01:07:14.867Z,75.60
2018-07-14T01:09:48.304Z,75.50
2018-07-14T01:12:21.745Z,75.60
2018-07-14T01:14:55.249Z,75.30
2018-07-14T01:17:28.692Z,75.40
2018-07-14T01:20:02.328Z,75.70
2018-07-14T01:22:35.800Z,75.20
2018-07-14T01:25:09.281Z,75.70
2018-07-14T01:27:42.805Z,76.10
2018-07-14T01:30:16.287Z,75.80
2018-07-14T01:32:49.730Z,75.70
2018-07-14T01:35:23.180Z,75.80
2018-07-14T01:37:56.631Z,76.00
2018-07-14T01:40:30.089Z,75.90
2018-07-14T01:43:03.520Z,76.20
2018-07-14T01:45:37.030Z,76.60
2018-07-14T01:48:10.480Z,76.70
2018-07-14T01:50:43.960Z,76.90
2018-07-14T01:53:17.423Z,77.00
2018-07-14T01:55:50.921Z,77.10
2018-07-14T01:58:24.376Z,77.00
2018-07-14T02:00:57.868Z,77.10
2018-07-14T02:03:31.335Z,77.00
2018-07-14T02:06:04.766Z,77.30
2018-07-14T02:08:38.239Z,77.60
2018-07-14T02:11:11.688Z,77.90
2018-07-14T02:13:45.136Z,77.70
2018-07-14T02:16:18.614Z,77.60
2018-07-14T02:18:52.082Z,77.90
2018-07-14T02:21:25.559Z,77.80
2018-07-14T02:23:58.956Z,77.80
2018-07-14T02:26:32.424Z,77.60
2018-07-14T02:29:05.888Z,78.10
2018-07-14T02:31:39.381Z,78.00
2018-07-14T02:34:12.825Z,77.80
2018-07-14T02:36:46.260Z,77.80
2018-07-14T02:39:19.706Z,77.70
2018-07-14T02:41:53.171Z,77.70
2018-07-14T02:44:26.598Z,77.90
2018-07-14T02:47:00.110Z,78.50
2018-07-14T02:49:33.549Z,78.60
2018-07-14T02:52:07.004Z,78.90
2018-07-14T02:54:40.409Z,78.60
2018-07-14T02:57:13.894Z,79.00
2018-07-14T02:59:47.399Z,79.00
2018-07-14T03:02:20.860Z,78.90
2018-07-14T03:04:54.335Z,79.20
2018-07-14T03:07:27.824Z,78.90
2018-07-14T03:10:01.292Z,78.80
2018-07-14T03:12:34.736Z,78.70
2018-07-14T03:15:08.632Z,78.50
2018-07-14T03:20:15.186Z,78.90
2018-07-14T03:22:48.635Z,79.00
2018-07-14T03:25:22.111Z,79.10
2018-07-14T03:27:55.560Z,78.70
2018-07-14T03:30:29.062Z,78.60
2018-07-14T03:33:02.485Z,78.80
2018-07-14T03:35:35.958Z,79.10
2018-07-14T03:38:09.382Z,79.10
2018-07-14T03:40:42.873Z,79.50
2018-07-14T03:43:16.317Z,79.20
2018-07-14T03:45:49.850Z,79.30
2018-07-14T03:48:23.301Z,79.20
2018-07-14T03:50:57.726Z,79.10
2018-07-14T03:53:31.180Z,79.10
2018-07-14T03:56:05.088Z,79.20
2018-07-14T03:58:38.524Z,79.50
2018-07-14T04:01:12.045Z,79.40
2018-07-14T04:03:45.526Z,79.10
2018-07-14T04:08:52.161Z,79.20
2018-07-14T04:11:25.610Z,79.20
2018-07-14T04:13:59.048Z,78.70
2018-07-14T04:16:32.496Z,78.40
2018-07-14T04:19:05.961Z,78.20
2018-07-14T04:21:39.433Z,78.30
2018-07-14T04:24:12.908Z,78.30
2018-07-14T04:26:46.342Z,78.20
2018-07-14T04:29:19.792Z,78.20
2018-07-14T04:31:53.317Z,78.40
2018-07-14T04:34:26.901Z,78.70
2018-07-14T04:37:00.357Z,79.30
2018-07-14T04:39:33.858Z,78.40
2018-07-14T04:42:07.328Z,78.00
2018-07-14T04:44:40.883Z,77.80
2018-07-14T04:47:14.339Z,77.80
2018-07-14T04:49:47.793Z,78.10
2018-07-14T04:52:21.471Z,78.20
2018-07-14T04:54:55.007Z,77.90
2018-07-14T04:57:28.506Z,77.60
2018-07-14T05:00:02.027Z,77.60
2018-07-14T05:02:35.509Z,77.40
2018-07-14T05:05:09.032Z,76.70
2018-07-14T05:07:42.587Z,76.60
2018-07-14T05:10:16.182Z,76.10
2018-07-14T05:12:49.732Z,76.10
2018-07-14T05:15:23.499Z,75.90
2018-07-14T05:17:56.945Z,75.60
2018-07-14T05:20:30.476Z,75.80
2018-07-14T05:23:03.955Z,75.40
2018-07-14T05:25:37.499Z,74.70
2018-07-14T05:30:44.128Z,72.10
2018-07-14T05:33:17.731Z,67.80
2018-07-14T05:35:51.199Z,62.90
2018-07-14T05:38:24.710Z,59.30
2018-07-14T05:40:58.240Z,56.70
2018-07-14T05:43:31.715Z,54.40
2018-07-14T05:46:05.203Z,52.10
2018-07-14T05:48:38.706Z,51.00
2018-07-14T05:51:12.170Z,50.00
2018-07-14T05:53:45.671Z,49.50
2018-07-14T05:56:19.153Z,47.80
2018-07-14T05:58:52.673Z,47.70
2018-07-14T06:01:26.214Z,47.00
2018-07-14T06:03:59.703Z,46.50
2018-07-14T06:06:33.190Z,45.70
2018-07-14T06:09:07.694Z,44.20
2018-07-14T06:11:41.225Z,43.50
2018-07-14T06:14:14.726Z,42.30
2018-07-14T06:16:48.193Z,41.60
2018-07-14T06:19:21.821Z,41.30
2018-07-14T06:21:55.337Z,42.20
2018-07-14T06:24:28.822Z,41.50
2018-07-14T06:27:02.280Z,41.30
2018-07-14T06:29:35.798Z,41.40
2018-07-14T06:32:09.339Z,41.80
2018-07-14T06:34:42.828Z,42.20
2018-07-14T06:37:16.281Z,40.80
2018-07-14T06:39:49.836Z,40.20
2018-07-14T06:42:23.326Z,39.00
2018-07-14T06:44:56.864Z,38.90
2018-07-14T06:47:30.463Z,38.90
2018-07-14T06:50:04.120Z,39.20
2018-07-14T06:52:37.625Z,39.20
2018-07-14T06:55:11.133Z,40.10
2018-07-14T06:57:44.613Z,41.00
2018-07-14T07:00:18.158Z,38.50
2018-07-14T07:02:51.726Z,37.70
2018-07-14T07:05:25.218Z,37.90
2018-07-14T07:07:58.722Z,40.10
2018-07-14T07:10:32.196Z,40.00
2018-07-14T07:13:06.827Z,41.90
2018-07-14T07:15:40.296Z,42.30
2018-07-14T07:18:13.736Z,44.10
2018-07-14T07:20:47.297Z,43.30
2018-07-14T07:23:20.770Z,42.40
2018-07-14T07:25:54.252Z,41.40
2018-07-14T07:28:27.737Z,40.40
2018-07-14T07:31:01.262Z,39.00
2018-07-14T07:33:34.741Z,38.50
2018-07-14T07:36:08.294Z,38.30
2018-07-14T07:38:41.889Z,37.60
2018-07-14T07:41:15.377Z,37.00
2018-07-14T07:43:48.910Z,36.70
2018-07-14T07:46:22.419Z,36.50
2018-07-14T07:48:55.905Z,38.30
2018-07-14T07:51:29.444Z,37.10
2018-07-14T07:54:02.940Z,38.90
2018-07-14T07:56:36.445Z,37.90
2018-07-14T07:59:10.013Z,38.10
2018-07-14T08:01:43.497Z,38.70
2018-07-14T08:04:16.993Z,37.10
2018-07-14T08:06:50.473Z,38.60
2018-07-14T08:09:23.979Z,36.70
2018-07-14T08:11:57.444Z,36.60
2018-07-14T08:14:30.906Z,36.80
2018-07-14T08:17:04.425Z,36.10
2018-07-14T08:19:37.888Z,36.80
2018-07-14T08:22:11.412Z,36.20
2018-07-14T08:24:44.885Z,38.50
2018-07-14T08:27:18.470Z,37.70
2018-07-14T08:29:52.037Z,38.00
2018-07-14T08:32:25.587Z,38.20
2018-07-14T08:34:59.046Z,39.40
2018-07-14T08:37:39.173Z,38.80
2018-07-14T08:40:12.627Z,38.30
2018-07-14T08:42:46.137Z,39.00
2018-07-14T08:45:19.682Z,39.00
2018-07-14T08:47:53.173Z,39.20
2018-07-14T08:50:27.084Z,39.80
2018-07-14T08:53:00.519Z,40.30
2018-07-14T08:55:33.988Z,40.50
2018-07-14T08:58:07.603Z,39.90
2018-07-14T09:00:41.041Z,39.90
2018-07-14T09:03:14.460Z,39.10
2018-07-14T09:05:47.976Z,38.60
2018-07-14T09:08:21.449Z,40.70
2018-07-14T09:10:54.936Z,38.90
2018-07-14T09:13:28.379Z,38.10
2018-07-14T09:16:01.856Z,37.50
2018-07-14T09:18:35.356Z,38.30
2018-07-14T09:21:08.878Z,38.50
2018-07-14T09:23:42.319Z,38.20
2018-07-14T09:26:15.780Z,38.40
2018-07-14T09:28:49.599Z,39.00
2018-07-14T09:31:23.061Z,39.50
2018-07-14T09:33:56.537Z,37.70
2018-07-14T09:36:30.088Z,37.30
2018-07-14T09:39:04.645Z,37.70
2018-07-14T09:41:38.140Z,38.20
2018-07-14T09:44:11.648Z,38.30
2018-07-14T09:46:45.169Z,39.20
2018-07-14T09:49:18.643Z,37.00
2018-07-14T09:51:52.482Z,36.90
2018-07-14T09:54:25.926Z,37.90
2018-07-14T09:56:59.453Z,38.80
2018-07-14T09:59:32.923Z,37.20
2018-07-14T10:02:06.742Z,35.70
2018-07-14T10:04:40.278Z,35.50
2018-07-14T10:07:13.797Z,35.80
2018-07-14T10:09:47.249Z,36.00
2018-07-14T10:12:20.772Z,35.70
2018-07-14T10:14:54.219Z,35.30
2018-07-14T10:17:27.853Z,34.80
2018-07-14T10:20:01.266Z,36.20
2018-07-14T10:22:34.748Z,37.10
2018-07-14T10:25:08.268Z,37.60
2018-07-14T10:27:41.950Z,38.60
2018-07-14T10:30:15.454Z,39.80
2018-07-14T10:32:48.986Z,41.80
2018-07-14T10:35:22.461Z,43.20
2018-07-14T10:37:55.937Z,43.60
2018-07-14T10:40:29.386Z,44.30
2018-07-14T10:43:02.854Z,44.60
2018-07-14T10:45:36.409Z,44.80
2018-07-14T10:48:09.907Z,44.40
2018-07-14T10:50:43.384Z,44.00
2018-07-14T10:53:16.912Z,43.50
2018-07-14T10:55:50.438Z,43.80
2018-07-14T10:58:23.958Z,42.50
2018-07-14T11:00:57.500Z,41.30
2018-07-14T11:03:31.020Z,42.30
2018-07-14T11:06:04.538Z,42.20
2018-07-14T11:08:37.998Z,41.30
2018-07-14T11:11:11.588Z,39.90
2018-07-14T11:13:45.065Z,41.10
2018-07-14T11:16:18.597Z,41.70
2018-07-14T11:18:52.039Z,42.90
2018-07-14T11:21:25.585Z,43.00
2018-07-14T11:26:32.414Z,45.30
2018-07-14T11:29:05.908Z,46.80
2018-07-14T11:31:39.408Z,47.00
2018-07-14T11:34:12.876Z,46.60
2018-07-14T11:36:46.381Z,47.00
2018-07-14T11:39:19.852Z,48.70
2018-07-14T11:41:53.359Z,47.60
2018-07-14T11:44:26.902Z,47.80
2018-07-14T11:47:00.429Z,49.20
2018-07-14T11:49:33.942Z,48.90
2018-07-14T11:52:07.633Z,50.10
2018-07-14T11:54:41.108Z,50.80
2018-07-14T11:57:14.619Z,49.10
2018-07-14T11:59:48.122Z,47.40
2018-07-14T12:02:21.680Z,46.50
2018-07-14T12:04:55.145Z,47.10
2018-07-14T12:07:28.612Z,46.00
2018-07-14T12:10:02.109Z,45.40
2018-07-14T12:12:35.589Z,45.70
2018-07-14T12:15:09.285Z,47.30
2018-07-14T12:17:42.759Z,47.40
2018-07-14T12:20:16.301Z,47.20
2018-07-14T12:22:49.760Z,46.70
2018-07-14T12:25:23.233Z,47.30
2018-07-14T12:27:56.730Z,45.90
2018-07-14T12:30:30.268Z,46.80
2018-07-14T12:33:03.697Z,45.30
2018-07-14T12:35:37.206Z,44.40
2018-07-14T12:38:10.666Z,44.70
2018-07-14T12:40:44.321Z,41.90
2018-07-14T12:43:17.820Z,41.30
2018-07-14T12:45:51.401Z,42.10
2018-07-14T12:48:24.925Z,41.20
2018-07-14T12:50:58.584Z,42.20
2018-07-14T12:53:32.070Z,42.50
2018-07-14T12:58:38.908Z,39.40
2018-07-14T13:01:12.393Z,37.00
2018-07-14T13:03:46.041Z,37.30
2018-07-14T13:06:19.674Z,36.50
2018-07-14T13:08:53.366Z,39.20
2018-07-14T13:11:26.859Z,36.50
2018-07-14T13:14:00.402Z,35.90
2018-07-14T13:16:34.103Z,36.00
2018-07-14T13:19:07.575Z,34.10
2018-07-14T13:24:14.278Z,33.70
2018-07-14T13:26:47.814Z,34.80
2018-07-14T13:29:21.321Z,35.80
2018-07-14T13:31:54.835Z,36.10
2018-07-14T13:34:28.350Z,37.50
2018-07-14T13:37:01.870Z,39.00
2018-07-14T13:39:35.374Z,39.40
2018-07-14T13:42:08.828Z,38.30
2018-07-14T13:44:42.346Z,39.20
2018-07-14T13:49:49.040Z,39.00
2018-07-14T13:52:22.512Z,39.30
2018-07-14T13:54:56.013Z,39.30
2018-07-14T13:57:29.500Z,39.90
2018-07-14T14:00:03.051Z,39.30
2018-07-14T14:02:36.638Z,39.70
2018-07-14T14:05:10.180Z,39.90
2018-07-14T14:07:43.638Z,38.50
2018-07-14T14:10:17.150Z,39.20
2018-07-14T14:12:50.650Z,39.40
2018-07-14T16:10:43.490Z,40.20
2018-07-14T16:13:17.027Z,40.50
2018-07-14T16:15:50.554Z,40.90
2018-07-14T16:18:24.049Z,39.30
2018-07-14T16:20:57.523Z,39.60
2018-07-14T16:23:31.023Z,40.80
2018-07-14T16:26:04.582Z,40.70
2018-07-14T16:28:38.093Z,40.10
2018-07-14T16:33:44.770Z,38.30
2018-07-14T16:38:51.413Z,38.80
2018-07-14T16:41:24.954Z,39.00
2018-07-14T16:43:58.431Z,38.50
2018-07-14T16:46:32.054Z,39.10
2018-07-14T16:49:05.848Z,38.80
2018-07-14T16:51:39.451Z,38.30
2018-07-14T16:54:13.057Z,39.10
2018-07-14T16:56:46.619Z,39.00
2018-07-14T16:59:20.176Z,38.40
2018-07-14T17:04:27.012Z,39.40
2018-07-14T17:07:00.523Z,39.80
2018-07-14T17:09:34.023Z,40.30
2018-07-14T17:12:07.528Z,40.50
2018-07-14T17:14:41.005Z,40.30
2018-07-14T17:17:14.584Z,40.50
2018-07-14T17:19:48.036Z,40.80
2018-07-14T17:22:21.560Z,40.90
2018-07-14T17:24:55.036Z,40.60
2018-07-14T17:27:28.580Z,41.30
2018-07-14T17:30:02.028Z,41.10
2018-07-14T17:32:35.527Z,41.40
2018-07-14T17:35:09.083Z,41.30
2018-07-14T17:37:42.587Z,41.60
2018-07-14T17:40:16.074Z,41.80
2018-07-14T17:45:22.770Z,43.00
2018-07-14T17:47:56.377Z,43.50
2018-07-14T17:50:29.849Z,43.80
2018-07-14T17:53:03.356Z,44.20
2018-07-14T17:55:36.924Z,44.30
2018-07-14T17:58:10.437Z,43.90
2018-07-14T18:00:44.009Z,44.40
2018-07-14T18:03:17.508Z,44.80
2018-07-14T18:05:50.968Z,44.90
2018-07-14T18:08:24.488Z,45.10
2018-07-14T18:10:58.017Z,45.10
2018-07-14T18:13:31.595Z,46.20
2018-07-14T18:16:05.089Z,46.20
2018-07-14T18:18:38.947Z,47.40
2018-07-14T18:21:12.625Z,47.70
2018-07-14T18:23:46.186Z,47.40
2018-07-14T18:26:19.725Z,47.80
2018-07-14T18:28:53.214Z,49.00
2018-07-14T18:31:26.676Z,49.10
2018-07-14T18:34:00.202Z,49.50
2018-07-14T18:36:33.747Z,50.40
2018-07-14T18:39:08.073Z,51.10
2018-07-14T18:41:41.618Z,51.50
2018-07-14T18:44:15.139Z,53.20
2018-07-14T18:46:48.650Z,53.00
2018-07-14T18:49:22.143Z,53.50
2018-07-14T18:51:55.667Z,54.00
2018-07-14T18:54:29.417Z,53.90
2018-07-14T18:57:02.933Z,55.00
2018-07-14T18:59:36.498Z,54.70
2018-07-14T19:02:10.062Z,54.80
2018-07-14T19:04:43.522Z,55.50
2018-07-14T19:07:17.084Z,55.80
2018-07-14T19:09:50.576Z,56.40
2018-07-14T19:12:24.095Z,56.90
2018-07-14T19:14:57.642Z,57.20
2018-07-14T19:17:37.527Z,57.70
2018-07-14T19:20:11.039Z,58.30
2018-07-14T19:22:44.546Z,58.50
2018-07-14T19:25:18.109Z,59.00
2018-07-14T19:27:51.624Z,58.50
2018-07-14T19:30:25.151Z,58.60
2018-07-14T19:32:58.766Z,59.10
2018-07-14T19:35:32.282Z,58.90
2018-07-14T19:38:05.910Z,59.60
2018-07-14T19:40:39.418Z,60.20
2018-07-14T19:43:12.938Z,60.70
2018-07-14T19:45:46.524Z,61.40
2018-07-14T19:48:20.074Z,61.40
2018-07-14T19:50:53.687Z,60.00
2018-07-14T19:53:27.131Z,59.90
2018-07-14T19:56:00.759Z,60.00
2018-07-14T19:58:34.248Z,60.20
2018-07-14T20:01:07.875Z,59.80
2018-07-14T20:03:41.389Z,60.30
2018-07-14T20:06:14.871Z,60.40
2018-07-14T20:08:48.701Z,60.80
2018-07-14T20:11:22.214Z,60.60
2018-07-14T20:13:55.709Z,61.80
2018-07-14T20:16:29.274Z,63.50
2018-07-14T20:19:02.994Z,63.60
2018-07-14T20:21:36.516Z,64.10
2018-07-14T20:24:10.221Z,64.20
2018-07-14T20:26:43.960Z,64.90
2018-07-14T20:29:17.520Z,65.20
2018-07-14T20:31:51.176Z,66.30
2018-07-14T20:34:24.684Z,66.10
2018-07-14T20:36:58.171Z,66.40
2018-07-14T20:39:31.709Z,66.40
2018-07-14T20:42:05.342Z,66.50
2018-07-14T20:44:38.867Z,66.70
2018-07-14T20:47:12.503Z,66.70
2018-07-14T20:50:48.954Z,66.50
2018-07-14T20:53:22.513Z,65.50
2018-07-14T20:55:56.003Z,63.90
2018-07-14T20:58:29.490Z,65.20
2018-07-14T21:01:03.043Z,65.10
2018-07-14T21:03:36.858Z,65.40
2018-07-14T21:06:10.487Z,65.90
2018-07-14T21:08:44.089Z,66.10
2018-07-14T21:11:17.583Z,66.30
2018-07-14T21:13:51.369Z,67.00
2018-07-14T21:18:58.060Z,67.90
2018-07-14T21:21:31.628Z,67.50
2018-07-14T21:24:05.171Z,68.40
2018-07-14T21:26:38.879Z,68.60
2018-07-14T21:29:12.536Z,67.50
2018-07-14T21:31:46.093Z,67.80
2018-07-14T21:34:19.616Z,67.90
2018-07-14T21:36:53.886Z,67.50
2018-07-14T21:39:27.408Z,67.90
2018-07-14T21:42:00.894Z,67.30
2018-07-14T21:44:34.517Z,66.90
2018-07-14T21:47:08.246Z,67.60
2018-07-14T21:49:42.045Z,67.80
2018-07-14T21:52:15.715Z,68.20
2018-07-14T21:54:49.281Z,68.40
2018-07-14T21:57:22.897Z,69.10
2018-07-14T21:59:56.756Z,70.20
2018-07-14T22:02:30.482Z,70.80
2018-07-14T22:05:04.195Z,71.20
2018-07-14T22:07:37.842Z,72.10
2018-07-14T22:10:11.463Z,71.40
2018-07-14T22:12:45.015Z,71.50
2018-07-14T22:15:18.575Z,71.80
2018-07-14T22:17:52.876Z,71.30
2018-07-14T22:20:26.866Z,71.20
2018-07-14T22:23:00.401Z,71.00
2018-07-14T22:25:34.034Z,70.50
2018-07-14T22:28:07.979Z,71.10
2018-07-14T22:30:41.617Z,71.30
2018-07-14T22:33:15.282Z,70.90
2018-07-14T22:35:48.959Z,71.40
2018-07-14T22:38:22.601Z,71.80
2018-07-14T22:40:56.306Z,72.00
2018-07-14T22:43:29.965Z,72.50
2018-07-14T22:46:03.580Z,73.00
2018-07-14T22:48:37.326Z,73.00
2018-07-14T22:51:10.874Z,73.50
2018-07-14T22:53:44.664Z,73.30
2018-07-14T22:56:18.155Z,73.20
2018-07-14T22:58:51.661Z,73.50
2018-07-14T23:01:25.182Z,73.20
2018-07-14T23:03:58.758Z,73.20
2018-07-14T23:06:32.430Z,73.40
2018-07-14T23:09:07.347Z,73.60
2018-07-14T23:11:40.838Z,73.90
2018-07-14T23:14:14.456Z,74.40
2018-07-14T23:16:47.913Z,74.70
2018-07-14T23:19:21.333Z,74.80
2018-07-14T23:21:54.768Z,74.80
2018-07-14T23:24:28.367Z,74.70
2018-07-14T23:27:01.942Z,74.70
2018-07-14T23:29:35.434Z,74.60
2018-07-14T23:32:08.905Z,74.60
2018-07-14T23:34:42.485Z,74.60
2018-07-14T23:37:16.030Z,74.80
2018-07-14T23:39:49.615Z,75.20
2018-07-14T23:42:23.122Z,75.40
2018-07-14T23:44:56.667Z,75.50
2018-07-14T23:47:30.157Z,75.50
2018-07-14T23:50:03.745Z,75.60
2018-07-14T23:52:37.161Z,76.00
2018-07-14T23:55:10.624Z,76.00
